sensor_id;sensor_type;location;lat;lon;timestamp;P1;durP1;ratioP1;P2;durP2;ratioP2
77226;SDS011;66234;47.642;19.144;2023-04-03T00:01:13;4.18;;;2.35;;
77226;SDS011;66234;47.642;19.144;2023-04-03T00:04:17;5.95;;;2.97;;
77226;SDS011;66234;47.642;19.144;2023-04-03T00:07:20;3.47;;;2.15;;
77226;SDS011;66234;47.642;19.144;2023-04-03T00:10:23;4.27;;;2.60;;
77226;SDS011;66234;47.642;19.144;2023-04-03T00:13:25;4.83;;;2.80;;
77226;SDS011;66234;47.642;19.144;2023-04-03T00:16:28;4.85;;;2.40;;
77226;SDS011;66234;47.642;19.144;2023-04-03T00:19:30;4.65;;;2.67;;
77226;SDS011;66234;47.642;19.144;2023-04-03T00:22:33;5.80;;;2.55;;
77226;SDS011;66234;47.642;19.144;2023-04-03T00:25:36;5.80;;;2.77;;
77226;SDS011;66234;47.642;19.144;2023-04-03T00:28:39;4.00;;;2.40;;
77226;SDS011;66234;47.642;19.144;2023-04-03T00:31:41;5.45;;;2.50;;
77226;SDS011;66234;47.642;19.144;2023-04-03T00:34:44;4.55;;;2.58;;
77226;SDS011;66234;47.642;19.144;2023-04-03T00:37:47;6.07;;;2.95;;
77226;SDS011;66234;47.642;19.144;2023-04-03T00:40:50;5.67;;;2.93;;
77226;SDS011;66234;47.642;19.144;2023-04-03T00:43:53;4.37;;;3.13;;
77226;SDS011;66234;47.642;19.144;2023-04-03T00:46:55;6.88;;;3.22;;
77226;SDS011;66234;47.642;19.144;2023-04-03T00:49:58;5.65;;;2.80;;
77226;SDS011;66234;47.642;19.144;2023-04-03T00:53:00;5.72;;;2.42;;
77226;SDS011;66234;47.642;19.144;2023-04-03T00:56:05;4.70;;;2.57;;
77226;SDS011;66234;47.642;19.144;2023-04-03T00:59:12;7.03;;;2.80;;
77226;SDS011;66234;47.642;19.144;2023-04-03T01:02:19;5.32;;;2.83;;
77226;SDS011;66234;47.642;19.144;2023-04-03T01:05:21;4.70;;;3.00;;
77226;SDS011;66234;47.642;19.144;2023-04-03T01:08:24;6.28;;;3.40;;
77226;SDS011;66234;47.642;19.144;2023-04-03T01:11:27;4.10;;;2.27;;
77226;SDS011;66234;47.642;19.144;2023-04-03T01:14:30;4.97;;;2.60;;
77226;SDS011;66234;47.642;19.144;2023-04-03T01:17:43;4.53;;;2.78;;
77226;SDS011;66234;47.642;19.144;2023-04-03T01:21:54;5.80;;;3.10;;
77226;SDS011;66234;47.642;19.144;2023-04-03T01:24:35;5.25;;;2.63;;
77226;SDS011;66234;47.642;19.144;2023-04-03T01:27:44;4.07;;;2.60;;
77226;SDS011;66234;47.642;19.144;2023-04-03T01:33:53;4.93;;;2.78;;
77226;SDS011;66234;47.642;19.144;2023-04-03T01:36:56;5.50;;;3.05;;
77226;SDS011;66234;47.642;19.144;2023-04-03T01:39:59;4.22;;;2.38;;
77226;SDS011;66234;47.642;19.144;2023-04-03T01:43:02;4.70;;;2.50;;
77226;SDS011;66234;47.642;19.144;2023-04-03T01:46:04;6.77;;;2.70;;
77226;SDS011;66234;47.642;19.144;2023-04-03T01:49:07;5.75;;;2.60;;
77226;SDS011;66234;47.642;19.144;2023-04-03T01:52:10;5.40;;;3.13;;
77226;SDS011;66234;47.642;19.144;2023-04-03T01:55:12;4.65;;;2.72;;
77226;SDS011;66234;47.642;19.144;2023-04-03T01:58:15;4.40;;;2.53;;
77226;SDS011;66234;47.642;19.144;2023-04-03T02:01:18;4.90;;;2.70;;
77226;SDS011;66234;47.642;19.144;2023-04-03T02:04:20;4.40;;;2.78;;
77226;SDS011;66234;47.642;19.144;2023-04-03T02:07:23;6.45;;;3.45;;
77226;SDS011;66234;47.642;19.144;2023-04-03T02:10:26;4.75;;;2.83;;
77226;SDS011;66234;47.642;19.144;2023-04-03T02:13:29;5.20;;;2.73;;
77226;SDS011;66234;47.642;19.144;2023-04-03T02:16:31;5.60;;;3.00;;
77226;SDS011;66234;47.642;19.144;2023-04-03T02:19:34;4.72;;;2.60;;
77226;SDS011;66234;47.642;19.144;2023-04-03T02:22:37;4.93;;;2.90;;
77226;SDS011;66234;47.642;19.144;2023-04-03T02:25:40;4.05;;;2.40;;
77226;SDS011;66234;47.642;19.144;2023-04-03T02:28:43;5.57;;;3.07;;
77226;SDS011;66234;47.642;19.144;2023-04-03T02:31:45;3.97;;;2.50;;
77226;SDS011;66234;47.642;19.144;2023-04-03T02:34:49;5.90;;;2.65;;
77226;SDS011;66234;47.642;19.144;2023-04-03T02:37:52;4.85;;;2.75;;
77226;SDS011;66234;47.642;19.144;2023-04-03T02:41:04;4.07;;;2.42;;
77226;SDS011;66234;47.642;19.144;2023-04-03T02:44:09;4.80;;;2.57;;
77226;SDS011;66234;47.642;19.144;2023-04-03T02:47:13;4.00;;;2.77;;
77226;SDS011;66234;47.642;19.144;2023-04-03T02:50:15;6.85;;;2.70;;
77226;SDS011;66234;47.642;19.144;2023-04-03T02:53:18;4.60;;;2.60;;
77226;SDS011;66234;47.642;19.144;2023-04-03T02:56:23;3.55;;;2.70;;
77226;SDS011;66234;47.642;19.144;2023-04-03T02:59:25;5.33;;;2.83;;
77226;SDS011;66234;47.642;19.144;2023-04-03T03:02:28;5.03;;;2.17;;
77226;SDS011;66234;47.642;19.144;2023-04-03T03:05:31;5.22;;;2.85;;
77226;SDS011;66234;47.642;19.144;2023-04-03T03:08:35;4.35;;;2.35;;
77226;SDS011;66234;47.642;19.144;2023-04-03T03:11:37;4.85;;;2.40;;
77226;SDS011;66234;47.642;19.144;2023-04-03T03:14:40;4.03;;;2.13;;
77226;SDS011;66234;47.642;19.144;2023-04-03T03:17:45;4.50;;;2.37;;
77226;SDS011;66234;47.642;19.144;2023-04-03T03:20:54;3.60;;;2.28;;
77226;SDS011;66234;47.642;19.144;2023-04-03T03:23:57;4.47;;;2.88;;
77226;SDS011;66234;47.642;19.144;2023-04-03T03:27:01;5.20;;;2.67;;
77226;SDS011;66234;47.642;19.144;2023-04-03T03:30:04;4.07;;;2.30;;
77226;SDS011;66234;47.642;19.144;2023-04-03T03:33:08;4.77;;;2.70;;
77226;SDS011;66234;47.642;19.144;2023-04-03T03:36:11;3.33;;;1.92;;
77226;SDS011;66234;47.642;19.144;2023-04-03T03:39:13;2.92;;;1.88;;
77226;SDS011;66234;47.642;19.144;2023-04-03T03:42:17;4.85;;;2.67;;
77226;SDS011;66234;47.642;19.144;2023-04-03T03:45:20;7.57;;;2.63;;
77226;SDS011;66234;47.642;19.144;2023-04-03T03:48:23;4.03;;;2.33;;
77226;SDS011;66234;47.642;19.144;2023-04-03T03:51:26;3.72;;;2.13;;
77226;SDS011;66234;47.642;19.144;2023-04-03T03:54:28;4.72;;;2.50;;
77226;SDS011;66234;47.642;19.144;2023-04-03T03:57:31;3.00;;;1.92;;
77226;SDS011;66234;47.642;19.144;2023-04-03T04:00:35;4.90;;;2.47;;
77226;SDS011;66234;47.642;19.144;2023-04-03T04:03:38;3.17;;;2.17;;
77226;SDS011;66234;47.642;19.144;2023-04-03T04:06:43;4.25;;;1.85;;
77226;SDS011;66234;47.642;19.144;2023-04-03T04:09:47;4.40;;;2.47;;
77226;SDS011;66234;47.642;19.144;2023-04-03T04:12:49;3.15;;;1.77;;
77226;SDS011;66234;47.642;19.144;2023-04-03T04:15:57;3.60;;;1.93;;
77226;SDS011;66234;47.642;19.144;2023-04-03T04:18:59;5.20;;;2.17;;
77226;SDS011;66234;47.642;19.144;2023-04-03T04:22:02;4.47;;;2.30;;
77226;SDS011;66234;47.642;19.144;2023-04-03T04:25:07;4.50;;;2.22;;
77226;SDS011;66234;47.642;19.144;2023-04-03T04:28:11;5.28;;;2.38;;
77226;SDS011;66234;47.642;19.144;2023-04-03T04:31:14;4.63;;;2.40;;
77226;SDS011;66234;47.642;19.144;2023-04-03T04:34:17;4.07;;;2.10;;
77226;SDS011;66234;47.642;19.144;2023-04-03T04:37:21;3.67;;;2.17;;
77226;SDS011;66234;47.642;19.144;2023-04-03T04:40:24;4.22;;;2.08;;
77226;SDS011;66234;47.642;19.144;2023-04-03T04:43:26;3.67;;;2.28;;
77226;SDS011;66234;47.642;19.144;2023-04-03T04:46:30;6.00;;;2.07;;
77226;SDS011;66234;47.642;19.144;2023-04-03T04:49:34;4.10;;;2.10;;
77226;SDS011;66234;47.642;19.144;2023-04-03T04:52:37;5.13;;;2.55;;
77226;SDS011;66234;47.642;19.144;2023-04-03T04:55:42;3.72;;;2.47;;
77226;SDS011;66234;47.642;19.144;2023-04-03T04:58:45;4.72;;;2.13;;
77226;SDS011;66234;47.642;19.144;2023-04-03T05:01:47;3.03;;;2.07;;
77226;SDS011;66234;47.642;19.144;2023-04-03T05:04:51;6.67;;;2.37;;
77226;SDS011;66234;47.642;19.144;2023-04-03T05:08:00;3.63;;;2.30;;
77226;SDS011;66234;47.642;19.144;2023-04-03T05:11:03;4.20;;;2.30;;
77226;SDS011;66234;47.642;19.144;2023-04-03T05:14:06;4.57;;;1.98;;
77226;SDS011;66234;47.642;19.144;2023-04-03T05:17:11;5.90;;;2.20;;
77226;SDS011;66234;47.642;19.144;2023-04-03T05:20:18;5.10;;;2.33;;
77226;SDS011;66234;47.642;19.144;2023-04-03T05:23:21;6.13;;;3.25;;
77226;SDS011;66234;47.642;19.144;2023-04-03T05:26:24;4.97;;;3.33;;
77226;SDS011;66234;47.642;19.144;2023-04-03T05:29:28;4.28;;;2.67;;
77226;SDS011;66234;47.642;19.144;2023-04-03T05:32:33;8.13;;;4.50;;
77226;SDS011;66234;47.642;19.144;2023-04-03T05:35:47;9.63;;;4.40;;
77226;SDS011;66234;47.642;19.144;2023-04-03T05:38:54;5.55;;;2.70;;
77226;SDS011;66234;47.642;19.144;2023-04-03T05:41:59;4.47;;;2.38;;
77226;SDS011;66234;47.642;19.144;2023-04-03T05:45:03;4.90;;;2.78;;
77226;SDS011;66234;47.642;19.144;2023-04-03T05:48:06;5.40;;;3.37;;
77226;SDS011;66234;47.642;19.144;2023-04-03T05:51:14;8.17;;;3.90;;
77226;SDS011;66234;47.642;19.144;2023-04-03T05:54:24;6.15;;;3.10;;
77226;SDS011;66234;47.642;19.144;2023-04-03T05:57:46;4.07;;;2.45;;
77226;SDS011;66234;47.642;19.144;2023-04-03T06:00:49;4.05;;;2.35;;
77226;SDS011;66234;47.642;19.144;2023-04-03T06:03:52;4.70;;;2.57;;
77226;SDS011;66234;47.642;19.144;2023-04-03T06:07:01;4.00;;;2.20;;
77226;SDS011;66234;47.642;19.144;2023-04-03T06:10:06;4.47;;;2.55;;
77226;SDS011;66234;47.642;19.144;2023-04-03T06:13:09;4.53;;;2.42;;
77226;SDS011;66234;47.642;19.144;2023-04-03T06:16:14;5.93;;;2.53;;
77226;SDS011;66234;47.642;19.144;2023-04-03T06:19:20;5.63;;;2.00;;
77226;SDS011;66234;47.642;19.144;2023-04-03T06:22:26;3.37;;;1.63;;
77226;SDS011;66234;47.642;19.144;2023-04-03T06:25:32;2.55;;;1.65;;
77226;SDS011;66234;47.642;19.144;2023-04-03T06:28:35;2.70;;;1.85;;
77226;SDS011;66234;47.642;19.144;2023-04-03T06:31:38;3.35;;;1.65;;
77226;SDS011;66234;47.642;19.144;2023-04-03T06:34:41;3.67;;;1.73;;
77226;SDS011;66234;47.642;19.144;2023-04-03T06:37:44;3.50;;;1.50;;
77226;SDS011;66234;47.642;19.144;2023-04-03T06:40:47;2.05;;;1.30;;
77226;SDS011;66234;47.642;19.144;2023-04-03T06:43:50;3.15;;;1.92;;
77226;SDS011;66234;47.642;19.144;2023-04-03T06:46:53;2.75;;;1.10;;
77226;SDS011;66234;47.642;19.144;2023-04-03T06:49:56;3.07;;;1.50;;
77226;SDS011;66234;47.642;19.144;2023-04-03T06:53:00;2.67;;;1.00;;
77226;SDS011;66234;47.642;19.144;2023-04-03T06:56:03;2.60;;;1.30;;
77226;SDS011;66234;47.642;19.144;2023-04-03T06:59:06;1.73;;;1.15;;
77226;SDS011;66234;47.642;19.144;2023-04-03T07:02:09;4.57;;;2.50;;
77226;SDS011;66234;47.642;19.144;2023-04-03T07:05:14;1.87;;;0.90;;
77226;SDS011;66234;47.642;19.144;2023-04-03T07:08:18;2.47;;;1.33;;
77226;SDS011;66234;47.642;19.144;2023-04-03T07:11:20;1.30;;;0.90;;
77226;SDS011;66234;47.642;19.144;2023-04-03T07:14:23;1.17;;;0.68;;
77226;SDS011;66234;47.642;19.144;2023-04-03T07:17:26;2.58;;;1.73;;
77226;SDS011;66234;47.642;19.144;2023-04-03T07:20:29;1.73;;;0.70;;
77226;SDS011;66234;47.642;19.144;2023-04-03T07:23:32;2.47;;;1.40;;
77226;SDS011;66234;47.642;19.144;2023-04-03T07:26:35;2.40;;;1.25;;
77226;SDS011;66234;47.642;19.144;2023-04-03T07:29:38;2.58;;;1.00;;
77226;SDS011;66234;47.642;19.144;2023-04-03T07:32:42;3.00;;;0.93;;
77226;SDS011;66234;47.642;19.144;2023-04-03T07:35:45;2.77;;;1.27;;
77226;SDS011;66234;47.642;19.144;2023-04-03T07:38:48;1.43;;;0.80;;
77226;SDS011;66234;47.642;19.144;2023-04-03T07:41:51;3.53;;;0.40;;
77226;SDS011;66234;47.642;19.144;2023-04-03T07:44:54;2.05;;;0.90;;
77226;SDS011;66234;47.642;19.144;2023-04-03T07:47:56;1.67;;;0.77;;
77226;SDS011;66234;47.642;19.144;2023-04-03T07:51:00;2.23;;;0.97;;
77226;SDS011;66234;47.642;19.144;2023-04-03T07:54:04;0.77;;;0.50;;
77226;SDS011;66234;47.642;19.144;2023-04-03T07:57:06;1.20;;;0.68;;
77226;SDS011;66234;47.642;19.144;2023-04-03T08:00:09;0.95;;;0.60;;
77226;SDS011;66234;47.642;19.144;2023-04-03T08:03:15;3.13;;;0.80;;
77226;SDS011;66234;47.642;19.144;2023-04-03T08:06:19;1.50;;;0.80;;
77226;SDS011;66234;47.642;19.144;2023-04-03T08:09:39;2.23;;;0.80;;
77226;SDS011;66234;47.642;19.144;2023-04-03T08:12:42;1.95;;;0.80;;
77226;SDS011;66234;47.642;19.144;2023-04-03T08:15:49;1.48;;;0.73;;
77226;SDS011;66234;47.642;19.144;2023-04-03T08:18:53;2.17;;;0.60;;
77226;SDS011;66234;47.642;19.144;2023-04-03T08:21:57;2.37;;;1.03;;
77226;SDS011;66234;47.642;19.144;2023-04-03T08:25:00;1.50;;;0.80;;
77226;SDS011;66234;47.642;19.144;2023-04-03T08:28:04;1.10;;;0.65;;
77226;SDS011;66234;47.642;19.144;2023-04-03T08:31:09;4.25;;;0.75;;
77226;SDS011;66234;47.642;19.144;2023-04-03T08:34:14;2.50;;;1.00;;
77226;SDS011;66234;47.642;19.144;2023-04-03T08:37:17;1.63;;;0.87;;
77226;SDS011;66234;47.642;19.144;2023-04-03T08:40:21;1.17;;;0.67;;
77226;SDS011;66234;47.642;19.144;2023-04-03T08:43:34;2.65;;;0.82;;
77226;SDS011;66234;47.642;19.144;2023-04-03T08:50:15;2.00;;;1.05;;
77226;SDS011;66234;47.642;19.144;2023-04-03T08:53:21;1.07;;;0.60;;
77226;SDS011;66234;47.642;19.144;2023-04-03T08:56:29;1.83;;;0.80;;
77226;SDS011;66234;47.642;19.144;2023-04-03T08:59:34;2.05;;;1.40;;
77226;SDS011;66234;47.642;19.144;2023-04-03T09:02:47;1.20;;;0.90;;
77226;SDS011;66234;47.642;19.144;2023-04-03T09:05:53;2.75;;;1.00;;
77226;SDS011;66234;47.642;19.144;2023-04-03T09:12:42;0.90;;;0.40;;
77226;SDS011;66234;47.642;19.144;2023-04-03T09:15:52;0.95;;;0.47;;
77226;SDS011;66234;47.642;19.144;2023-04-03T09:22:41;0.88;;;0.50;;
77226;SDS011;66234;47.642;19.144;2023-04-03T09:25:54;1.37;;;0.63;;
77226;SDS011;66234;47.642;19.144;2023-04-03T09:29:05;0.90;;;0.70;;
77226;SDS011;66234;47.642;19.144;2023-04-03T09:32:18;1.77;;;0.60;;
77226;SDS011;66234;47.642;19.144;2023-04-03T09:35:30;1.77;;;0.40;;
77226;SDS011;66234;47.642;19.144;2023-04-03T09:39:02;1.05;;;0.57;;
77226;SDS011;66234;47.642;19.144;2023-04-03T09:42:40;1.00;;;0.50;;
77226;SDS011;66234;47.642;19.144;2023-04-03T09:45:47;1.53;;;0.70;;
77226;SDS011;66234;47.642;19.144;2023-04-03T09:48:52;1.50;;;0.45;;
77226;SDS011;66234;47.642;19.144;2023-04-03T09:52:23;1.05;;;0.55;;
77226;SDS011;66234;47.642;19.144;2023-04-03T09:55:28;0.50;;;0.25;;
77226;SDS011;66234;47.642;19.144;2023-04-03T09:58:41;1.03;;;0.33;;
77226;SDS011;66234;47.642;19.144;2023-04-03T10:02:28;0.90;;;0.40;;
77226;SDS011;66234;47.642;19.144;2023-04-03T10:05:41;1.52;;;0.70;;
77226;SDS011;66234;47.642;19.144;2023-04-03T10:08:46;1.65;;;0.90;;
77226;SDS011;66234;47.642;19.144;2023-04-03T10:12:07;1.02;;;0.40;;
77226;SDS011;66234;47.642;19.144;2023-04-03T10:15:13;1.73;;;0.67;;
77226;SDS011;66234;47.642;19.144;2023-04-03T10:18:27;1.83;;;0.50;;
77226;SDS011;66234;47.642;19.144;2023-04-03T10:21:48;2.28;;;0.70;;
77226;SDS011;66234;47.642;19.144;2023-04-03T10:28:20;5.03;;;2.30;;
77226;SDS011;66234;47.642;19.144;2023-04-03T10:31:34;2.67;;;0.53;;
77226;SDS011;66234;47.642;19.144;2023-04-03T10:34:52;1.20;;;0.60;;
77226;SDS011;66234;47.642;19.144;2023-04-03T10:45:35;3.08;;;0.60;;
77226;SDS011;66234;47.642;19.144;2023-04-03T10:49:05;1.17;;;0.60;;
77226;SDS011;66234;47.642;19.144;2023-04-03T10:52:22;6.10;;;1.07;;
77226;SDS011;66234;47.642;19.144;2023-04-03T10:55:46;1.08;;;0.50;;
77226;SDS011;66234;47.642;19.144;2023-04-03T11:05:26;1.00;;;0.43;;
77226;SDS011;66234;47.642;19.144;2023-04-03T11:08:50;1.77;;;0.70;;
77226;SDS011;66234;47.642;19.144;2023-04-03T11:15:51;1.25;;;0.63;;
77226;SDS011;66234;47.642;19.144;2023-04-03T11:18:57;1.50;;;0.75;;
77226;SDS011;66234;47.642;19.144;2023-04-03T11:22:03;2.10;;;1.00;;
77226;SDS011;66234;47.642;19.144;2023-04-03T11:28:26;2.67;;;1.23;;
77226;SDS011;66234;47.642;19.144;2023-04-03T11:34:49;0.70;;;0.38;;
77226;SDS011;66234;47.642;19.144;2023-04-03T11:37:55;0.50;;;0.30;;
77226;SDS011;66234;47.642;19.144;2023-04-03T11:41:00;2.40;;;1.70;;
77226;SDS011;66234;47.642;19.144;2023-04-03T11:44:05;2.15;;;1.02;;
77226;SDS011;66234;47.642;19.144;2023-04-03T11:47:47;1.05;;;0.60;;
77226;SDS011;66234;47.642;19.144;2023-04-03T11:50:52;1.48;;;1.00;;
77226;SDS011;66234;47.642;19.144;2023-04-03T11:53:55;1.33;;;1.10;;
77226;SDS011;66234;47.642;19.144;2023-04-03T12:01:10;2.08;;;1.00;;
77226;SDS011;66234;47.642;19.144;2023-04-03T12:04:14;2.28;;;1.15;;
77226;SDS011;66234;47.642;19.144;2023-04-03T12:07:19;1.35;;;0.55;;
77226;SDS011;66234;47.642;19.144;2023-04-03T12:10:22;2.57;;;1.47;;
77226;SDS011;66234;47.642;19.144;2023-04-03T12:13:27;1.10;;;0.60;;
77226;SDS011;66234;47.642;19.144;2023-04-03T12:16:32;1.90;;;0.95;;
77226;SDS011;66234;47.642;19.144;2023-04-03T12:19:44;3.50;;;0.63;;
77226;SDS011;66234;47.642;19.144;2023-04-03T12:23:23;1.27;;;0.30;;
77226;SDS011;66234;47.642;19.144;2023-04-03T12:26:26;3.40;;;1.70;;
77226;SDS011;66234;47.642;19.144;2023-04-03T12:29:56;2.43;;;0.73;;
77226;SDS011;66234;47.642;19.144;2023-04-03T12:40:10;13.80;;;5.28;;
77226;SDS011;66234;47.642;19.144;2023-04-03T12:43:24;2.70;;;1.20;;
77226;SDS011;66234;47.642;19.144;2023-04-03T12:46:35;12.57;;;8.40;;
77226;SDS011;66234;47.642;19.144;2023-04-03T12:49:44;2.40;;;1.65;;
77226;SDS011;66234;47.642;19.144;2023-04-03T12:52:50;1.48;;;1.08;;
77226;SDS011;66234;47.642;19.144;2023-04-03T12:55:58;1.45;;;0.55;;
77226;SDS011;66234;47.642;19.144;2023-04-03T12:59:28;1.23;;;0.70;;
77226;SDS011;66234;47.642;19.144;2023-04-03T13:02:32;0.67;;;0.30;;
77226;SDS011;66234;47.642;19.144;2023-04-03T13:05:39;0.85;;;0.60;;
77226;SDS011;66234;47.642;19.144;2023-04-03T13:08:51;1.50;;;1.10;;
77226;SDS011;66234;47.642;19.144;2023-04-03T13:15:01;2.20;;;1.00;;
77226;SDS011;66234;47.642;19.144;2023-04-03T13:18:22;0.70;;;0.60;;
77226;SDS011;66234;47.642;19.144;2023-04-03T13:21:33;1.70;;;1.10;;
77226;SDS011;66234;47.642;19.144;2023-04-03T13:24:39;2.20;;;1.08;;
77226;SDS011;66234;47.642;19.144;2023-04-03T13:27:42;1.83;;;0.85;;
77226;SDS011;66234;47.642;19.144;2023-04-03T13:34:17;0.90;;;0.47;;
77226;SDS011;66234;47.642;19.144;2023-04-03T13:37:26;1.50;;;0.77;;
77226;SDS011;66234;47.642;19.144;2023-04-03T13:40:30;2.97;;;1.60;;
77226;SDS011;66234;47.642;19.144;2023-04-03T13:43:46;1.25;;;1.10;;
77226;SDS011;66234;47.642;19.144;2023-04-03T13:49:59;1.80;;;1.00;;
77226;SDS011;66234;47.642;19.144;2023-04-03T13:53:12;1.83;;;1.20;;
77226;SDS011;66234;47.642;19.144;2023-04-03T13:56:18;0.95;;;0.77;;
77226;SDS011;66234;47.642;19.144;2023-04-03T13:59:29;1.35;;;0.93;;
77226;SDS011;66234;47.642;19.144;2023-04-03T14:02:33;7.60;;;3.60;;
77226;SDS011;66234;47.642;19.144;2023-04-03T14:05:36;4.00;;;2.10;;
77226;SDS011;66234;47.642;19.144;2023-04-03T14:08:39;1.92;;;1.30;;
77226;SDS011;66234;47.642;19.144;2023-04-03T14:11:45;1.67;;;0.90;;
77226;SDS011;66234;47.642;19.144;2023-04-03T14:14:49;1.00;;;0.70;;
77226;SDS011;66234;47.642;19.144;2023-04-03T14:17:52;4.17;;;1.17;;
77226;SDS011;66234;47.642;19.144;2023-04-03T14:20:55;1.27;;;0.63;;
77226;SDS011;66234;47.642;19.144;2023-04-03T14:23:57;3.53;;;1.65;;
77226;SDS011;66234;47.642;19.144;2023-04-03T14:27:00;2.78;;;1.48;;
77226;SDS011;66234;47.642;19.144;2023-04-03T14:30:03;1.65;;;1.02;;
77226;SDS011;66234;47.642;19.144;2023-04-03T14:33:13;2.27;;;1.20;;
77226;SDS011;66234;47.642;19.144;2023-04-03T14:36:22;1.10;;;0.67;;
77226;SDS011;66234;47.642;19.144;2023-04-03T14:39:27;1.25;;;0.98;;
77226;SDS011;66234;47.642;19.144;2023-04-03T14:42:31;3.40;;;1.25;;
77226;SDS011;66234;47.642;19.144;2023-04-03T14:45:35;2.88;;;1.35;;
77226;SDS011;66234;47.642;19.144;2023-04-03T14:48:39;6.03;;;1.77;;
77226;SDS011;66234;47.642;19.144;2023-04-03T14:51:43;4.77;;;2.77;;
77226;SDS011;66234;47.642;19.144;2023-04-03T14:54:47;1.75;;;1.08;;
77226;SDS011;66234;47.642;19.144;2023-04-03T14:57:55;2.63;;;1.40;;
77226;SDS011;66234;47.642;19.144;2023-04-03T15:00:59;3.42;;;1.52;;
77226;SDS011;66234;47.642;19.144;2023-04-03T15:04:01;5.80;;;2.80;;
77226;SDS011;66234;47.642;19.144;2023-04-03T15:07:07;3.13;;;2.37;;
77226;SDS011;66234;47.642;19.144;2023-04-03T15:10:18;8.98;;;4.65;;
77226;SDS011;66234;47.642;19.144;2023-04-03T15:13:23;3.83;;;1.85;;
77226;SDS011;66234;47.642;19.144;2023-04-03T15:16:25;2.15;;;1.13;;
77226;SDS011;66234;47.642;19.144;2023-04-03T15:19:31;6.40;;;2.73;;
77226;SDS011;66234;47.642;19.144;2023-04-03T15:22:38;3.63;;;2.17;;
77226;SDS011;66234;47.642;19.144;2023-04-03T15:25:42;4.25;;;1.90;;
77226;SDS011;66234;47.642;19.144;2023-04-03T15:28:45;3.47;;;1.02;;
77226;SDS011;66234;47.642;19.144;2023-04-03T15:31:49;8.07;;;4.97;;
77226;SDS011;66234;47.642;19.144;2023-04-03T15:34:54;46.27;;;15.00;;
77226;SDS011;66234;47.642;19.144;2023-04-03T15:37:58;19.97;;;5.83;;
77226;SDS011;66234;47.642;19.144;2023-04-03T15:41:00;16.55;;;5.68;;
77226;SDS011;66234;47.642;19.144;2023-04-03T15:44:03;8.13;;;3.17;;
77226;SDS011;66234;47.642;19.144;2023-04-03T15:47:05;4.97;;;1.75;;
77226;SDS011;66234;47.642;19.144;2023-04-03T15:50:08;3.00;;;1.43;;
77226;SDS011;66234;47.642;19.144;2023-04-03T15:53:12;5.23;;;3.00;;
77226;SDS011;66234;47.642;19.144;2023-04-03T15:56:14;2.58;;;1.15;;
77226;SDS011;66234;47.642;19.144;2023-04-03T15:59:17;4.43;;;2.30;;
77226;SDS011;66234;47.642;19.144;2023-04-03T16:02:21;9.70;;;6.00;;
77226;SDS011;66234;47.642;19.144;2023-04-03T16:05:25;12.13;;;7.13;;
77226;SDS011;66234;47.642;19.144;2023-04-03T16:08:27;15.20;;;8.33;;
77226;SDS011;66234;47.642;19.144;2023-04-03T16:11:30;11.93;;;7.00;;
77226;SDS011;66234;47.642;19.144;2023-04-03T16:14:33;9.77;;;4.93;;
77226;SDS011;66234;47.642;19.144;2023-04-03T16:17:38;4.88;;;2.67;;
77226;SDS011;66234;47.642;19.144;2023-04-03T16:20:43;2.80;;;0.90;;
77226;SDS011;66234;47.642;19.144;2023-04-03T16:23:45;2.77;;;1.50;;
77226;SDS011;66234;47.642;19.144;2023-04-03T16:26:48;1.55;;;0.80;;
77226;SDS011;66234;47.642;19.144;2023-04-03T16:29:51;2.65;;;0.85;;
77226;SDS011;66234;47.642;19.144;2023-04-03T16:32:54;1.80;;;0.90;;
77226;SDS011;66234;47.642;19.144;2023-04-03T16:35:57;2.87;;;1.27;;
77226;SDS011;66234;47.642;19.144;2023-04-03T16:39:00;2.37;;;1.40;;
77226;SDS011;66234;47.642;19.144;2023-04-03T16:42:03;1.65;;;0.77;;
77226;SDS011;66234;47.642;19.144;2023-04-03T16:45:06;1.27;;;0.82;;
77226;SDS011;66234;47.642;19.144;2023-04-03T16:48:10;6.85;;;2.90;;
77226;SDS011;66234;47.642;19.144;2023-04-03T16:51:13;1.93;;;1.20;;
77226;SDS011;66234;47.642;19.144;2023-04-03T16:54:15;11.53;;;5.60;;
77226;SDS011;66234;47.642;19.144;2023-04-03T16:57:18;7.90;;;4.03;;
77226;SDS011;66234;47.642;19.144;2023-04-03T17:00:22;7.57;;;3.78;;
77226;SDS011;66234;47.642;19.144;2023-04-03T17:03:25;6.47;;;3.72;;
77226;SDS011;66234;47.642;19.144;2023-04-03T17:06:31;1.53;;;1.10;;
77226;SDS011;66234;47.642;19.144;2023-04-03T17:09:34;2.70;;;1.10;;
77226;SDS011;66234;47.642;19.144;2023-04-03T17:12:36;1.73;;;0.80;;
77226;SDS011;66234;47.642;19.144;2023-04-03T17:15:39;3.10;;;0.88;;
77226;SDS011;66234;47.642;19.144;2023-04-03T17:18:42;2.17;;;0.98;;
77226;SDS011;66234;47.642;19.144;2023-04-03T17:21:47;3.17;;;1.73;;
77226;SDS011;66234;47.642;19.144;2023-04-03T17:24:50;2.07;;;0.90;;
77226;SDS011;66234;47.642;19.144;2023-04-03T17:27:52;1.95;;;0.95;;
77226;SDS011;66234;47.642;19.144;2023-04-03T17:30:55;3.05;;;1.42;;
77226;SDS011;66234;47.642;19.144;2023-04-03T17:34:02;4.43;;;2.42;;
77226;SDS011;66234;47.642;19.144;2023-04-03T17:37:05;3.03;;;1.47;;
77226;SDS011;66234;47.642;19.144;2023-04-03T17:40:08;3.33;;;2.10;;
77226;SDS011;66234;47.642;19.144;2023-04-03T17:43:11;4.10;;;1.85;;
77226;SDS011;66234;47.642;19.144;2023-04-03T17:46:14;2.28;;;1.65;;
77226;SDS011;66234;47.642;19.144;2023-04-03T17:49:19;2.53;;;1.58;;
77226;SDS011;66234;47.642;19.144;2023-04-03T17:52:25;2.20;;;1.50;;
77226;SDS011;66234;47.642;19.144;2023-04-03T17:55:29;2.20;;;1.70;;
77226;SDS011;66234;47.642;19.144;2023-04-03T17:58:32;8.85;;;3.70;;
77226;SDS011;66234;47.642;19.144;2023-04-03T18:01:35;2.83;;;1.58;;
77226;SDS011;66234;47.642;19.144;2023-04-03T18:04:38;4.70;;;1.50;;
77226;SDS011;66234;47.642;19.144;2023-04-03T18:07:41;1.80;;;0.90;;
77226;SDS011;66234;47.642;19.144;2023-04-03T18:10:43;1.57;;;0.87;;
77226;SDS011;66234;47.642;19.144;2023-04-03T18:13:46;3.88;;;1.48;;
77226;SDS011;66234;47.642;19.144;2023-04-03T18:16:50;3.22;;;1.33;;
77226;SDS011;66234;47.642;19.144;2023-04-03T18:19:53;1.98;;;1.05;;
77226;SDS011;66234;47.642;19.144;2023-04-03T18:22:55;3.37;;;1.97;;
77226;SDS011;66234;47.642;19.144;2023-04-03T18:25:58;4.17;;;1.70;;
77226;SDS011;66234;47.642;19.144;2023-04-03T18:29:04;1.63;;;0.80;;
77226;SDS011;66234;47.642;19.144;2023-04-03T18:32:11;2.13;;;1.30;;
77226;SDS011;66234;47.642;19.144;2023-04-03T18:35:16;2.05;;;1.00;;
77226;SDS011;66234;47.642;19.144;2023-04-03T18:38:19;2.80;;;1.37;;
77226;SDS011;66234;47.642;19.144;2023-04-03T18:41:24;2.40;;;1.13;;
77226;SDS011;66234;47.642;19.144;2023-04-03T18:44:32;3.45;;;2.00;;
77226;SDS011;66234;47.642;19.144;2023-04-03T18:47:37;4.57;;;2.10;;
77226;SDS011;66234;47.642;19.144;2023-04-03T18:50:41;2.70;;;1.65;;
77226;SDS011;66234;47.642;19.144;2023-04-03T18:53:45;2.50;;;1.27;;
77226;SDS011;66234;47.642;19.144;2023-04-03T18:56:48;4.50;;;2.37;;
77226;SDS011;66234;47.642;19.144;2023-04-03T18:59:53;3.00;;;0.93;;
77226;SDS011;66234;47.642;19.144;2023-04-03T19:02:56;2.00;;;1.45;;
77226;SDS011;66234;47.642;19.144;2023-04-03T19:05:59;3.47;;;1.33;;
77226;SDS011;66234;47.642;19.144;2023-04-03T19:09:04;3.57;;;1.30;;
77226;SDS011;66234;47.642;19.144;2023-04-03T19:12:08;3.00;;;1.17;;
77226;SDS011;66234;47.642;19.144;2023-04-03T19:15:12;2.25;;;1.10;;
77226;SDS011;66234;47.642;19.144;2023-04-03T19:18:15;4.78;;;2.03;;
77226;SDS011;66234;47.642;19.144;2023-04-03T19:21:18;2.42;;;1.23;;
77226;SDS011;66234;47.642;19.144;2023-04-03T19:24:22;3.20;;;1.67;;